sensor_id;sensor_type;location;lat;lon;timestamp;P1;durP1;ratioP1;P2;durP2;ratioP2
80705;SDS011;70229;48.010;7.852;2024-02-21T00:00:45;8.77;;;4.88;;
80705;SDS011;70229;48.010;7.852;2024-02-21T00:03:11;7.40;;;3.45;;
80705;SDS011;70229;48.010;7.852;2024-02-21T00:05:36;5.97;;;3.03;;
80705;SDS011;70229;48.010;7.852;2024-02-21T00:08:02;5.85;;;2.67;;
80705;SDS011;70229;48.010;7.852;2024-02-21T00:10:30;9.40;;;5.93;;
80705;SDS011;70229;48.010;7.852;2024-02-21T00:13:00;7.60;;;3.47;;
80705;SDS011;70229;48.010;7.852;2024-02-21T00:15:26;7.63;;;3.45;;
80705;SDS011;70229;48.010;7.852;2024-02-21T00:17:51;5.93;;;2.63;;
80705;SDS011;70229;48.010;7.852;2024-02-21T00:20:17;6.28;;;3.13;;
80705;SDS011;70229;48.010;7.852;2024-02-21T00:22:43;5.78;;;2.13;;
80705;SDS011;70229;48.010;7.852;2024-02-21T00:25:09;8.75;;;2.45;;
80705;SDS011;70229;48.010;7.852;2024-02-21T00:27:35;7.35;;;2.83;;
80705;SDS011;70229;48.010;7.852;2024-02-21T00:30:00;7.95;;;2.30;;
80705;SDS011;70229;48.010;7.852;2024-02-21T00:32:26;6.35;;;1.83;;
80705;SDS011;70229;48.010;7.852;2024-02-21T00:34:52;5.18;;;2.65;;
80705;SDS011;70229;48.010;7.852;2024-02-21T00:37:17;6.07;;;2.75;;
80705;SDS011;70229;48.010;7.852;2024-02-21T00:39:43;10.07;;;3.47;;
80705;SDS011;70229;48.010;7.852;2024-02-21T00:42:08;9.23;;;3.25;;
80705;SDS011;70229;48.010;7.852;2024-02-21T00:44:34;4.00;;;1.90;;
80705;SDS011;70229;48.010;7.852;2024-02-21T00:47:00;5.25;;;1.50;;
80705;SDS011;70229;48.010;7.852;2024-02-21T00:49:25;5.90;;;2.33;;
80705;SDS011;70229;48.010;7.852;2024-02-21T00:51:51;4.47;;;2.10;;
80705;SDS011;70229;48.010;7.852;2024-02-21T00:54:16;6.47;;;2.72;;
80705;SDS011;70229;48.010;7.852;2024-02-21T00:56:42;8.73;;;3.05;;
80705;SDS011;70229;48.010;7.852;2024-02-21T00:59:08;6.28;;;2.42;;
80705;SDS011;70229;48.010;7.852;2024-02-21T01:01:33;6.65;;;2.22;;
80705;SDS011;70229;48.010;7.852;2024-02-21T01:03:59;5.80;;;2.58;;
80705;SDS011;70229;48.010;7.852;2024-02-21T01:06:25;6.88;;;1.65;;
80705;SDS011;70229;48.010;7.852;2024-02-21T01:08:50;6.53;;;2.40;;
80705;SDS011;70229;48.010;7.852;2024-02-21T01:11:16;9.65;;;2.42;;
80705;SDS011;70229;48.010;7.852;2024-02-21T01:13:42;4.60;;;2.10;;
80705;SDS011;70229;48.010;7.852;2024-02-21T01:16:08;6.25;;;2.35;;
80705;SDS011;70229;48.010;7.852;2024-02-21T01:18:36;6.25;;;2.80;;
80705;SDS011;70229;48.010;7.852;2024-02-21T01:21:02;10.93;;;3.60;;
80705;SDS011;70229;48.010;7.852;2024-02-21T01:23:31;4.53;;;1.67;;
80705;SDS011;70229;48.010;7.852;2024-02-21T01:25:58;7.43;;;1.98;;
80705;SDS011;70229;48.010;7.852;2024-02-21T01:28:23;6.57;;;2.55;;
80705;SDS011;70229;48.010;7.852;2024-02-21T01:30:49;8.63;;;1.90;;
80705;SDS011;70229;48.010;7.852;2024-02-21T01:33:14;5.00;;;1.70;;
80705;SDS011;70229;48.010;7.852;2024-02-21T01:35:40;6.50;;;2.00;;
80705;SDS011;70229;48.010;7.852;2024-02-21T01:38:05;5.82;;;2.53;;
80705;SDS011;70229;48.010;7.852;2024-02-21T01:40:31;4.25;;;1.63;;
80705;SDS011;70229;48.010;7.852;2024-02-21T01:42:56;5.07;;;1.67;;
80705;SDS011;70229;48.010;7.852;2024-02-21T01:45:22;11.15;;;2.38;;
80705;SDS011;70229;48.010;7.852;2024-02-21T01:47:48;5.07;;;1.55;;
80705;SDS011;70229;48.010;7.852;2024-02-21T01:50:14;4.53;;;2.00;;
80705;SDS011;70229;48.010;7.852;2024-02-21T01:52:42;6.45;;;1.95;;
80705;SDS011;70229;48.010;7.852;2024-02-21T01:55:10;5.30;;;1.67;;
80705;SDS011;70229;48.010;7.852;2024-02-21T01:57:38;8.30;;;2.58;;
80705;SDS011;70229;48.010;7.852;2024-02-21T02:00:08;6.85;;;1.85;;
80705;SDS011;70229;48.010;7.852;2024-02-21T02:02:35;13.23;;;2.65;;
80705;SDS011;70229;48.010;7.852;2024-02-21T02:05:02;8.30;;;2.13;;
80705;SDS011;70229;48.010;7.852;2024-02-21T02:07:28;5.90;;;2.13;;
80705;SDS011;70229;48.010;7.852;2024-02-21T02:09:54;4.28;;;1.70;;
80705;SDS011;70229;48.010;7.852;2024-02-21T02:12:20;6.57;;;1.77;;
80705;SDS011;70229;48.010;7.852;2024-02-21T02:14:46;5.82;;;1.63;;
80705;SDS011;70229;48.010;7.852;2024-02-21T02:17:11;6.45;;;1.95;;
80705;SDS011;70229;48.010;7.852;2024-02-21T02:19:37;4.95;;;1.30;;
80705;SDS011;70229;48.010;7.852;2024-02-21T02:22:09;2.63;;;0.95;;
80705;SDS011;70229;48.010;7.852;2024-02-21T02:24:37;6.35;;;1.88;;
80705;SDS011;70229;48.010;7.852;2024-02-21T02:27:03;5.85;;;1.80;;
80705;SDS011;70229;48.010;7.852;2024-02-21T02:29:31;4.47;;;1.38;;
80705;SDS011;70229;48.010;7.852;2024-02-21T02:31:57;3.85;;;1.67;;
80705;SDS011;70229;48.010;7.852;2024-02-21T02:34:22;6.32;;;1.60;;
80705;SDS011;70229;48.010;7.852;2024-02-21T02:36:48;2.63;;;1.25;;
80705;SDS011;70229;48.010;7.852;2024-02-21T02:39:14;3.65;;;1.42;;
80705;SDS011;70229;48.010;7.852;2024-02-21T02:41:40;5.18;;;1.83;;
80705;SDS011;70229;48.010;7.852;2024-02-21T02:44:05;12.77;;;2.75;;
80705;SDS011;70229;48.010;7.852;2024-02-21T02:46:31;4.07;;;1.55;;
80705;SDS011;70229;48.010;7.852;2024-02-21T02:48:56;7.57;;;2.20;;
80705;SDS011;70229;48.010;7.852;2024-02-21T02:51:22;2.45;;;1.13;;
80705;SDS011;70229;48.010;7.852;2024-02-21T02:53:47;3.45;;;1.30;;
80705;SDS011;70229;48.010;7.852;2024-02-21T02:56:14;3.53;;;1.42;;
80705;SDS011;70229;48.010;7.852;2024-02-21T02:58:40;7.80;;;2.25;;
80705;SDS011;70229;48.010;7.852;2024-02-21T03:01:07;10.27;;;1.98;;
80705;SDS011;70229;48.010;7.852;2024-02-21T03:03:33;3.33;;;1.38;;
80705;SDS011;70229;48.010;7.852;2024-02-21T03:05:58;2.95;;;1.27;;
80705;SDS011;70229;48.010;7.852;2024-02-21T03:08:24;6.30;;;2.40;;
80705;SDS011;70229;48.010;7.852;2024-02-21T03:10:50;5.95;;;1.77;;
80705;SDS011;70229;48.010;7.852;2024-02-21T03:13:15;6.32;;;1.70;;
80705;SDS011;70229;48.010;7.852;2024-02-21T03:15:41;3.72;;;1.77;;
80705;SDS011;70229;48.010;7.852;2024-02-21T03:18:07;5.05;;;2.20;;
80705;SDS011;70229;48.010;7.852;2024-02-21T03:20:33;4.47;;;1.60;;
80705;SDS011;70229;48.010;7.852;2024-02-21T03:22:58;6.60;;;1.63;;
80705;SDS011;70229;48.010;7.852;2024-02-21T03:25:24;3.88;;;1.38;;
80705;SDS011;70229;48.010;7.852;2024-02-21T03:27:49;5.35;;;2.03;;
80705;SDS011;70229;48.010;7.852;2024-02-21T03:30:16;3.20;;;1.42;;
80705;SDS011;70229;48.010;7.852;2024-02-21T03:32:42;7.50;;;1.88;;
80705;SDS011;70229;48.010;7.852;2024-02-21T03:35:08;7.25;;;1.63;;
80705;SDS011;70229;48.010;7.852;2024-02-21T03:37:33;5.18;;;1.65;;
80705;SDS011;70229;48.010;7.852;2024-02-21T03:39:59;4.72;;;1.55;;
80705;SDS011;70229;48.010;7.852;2024-02-21T03:42:24;3.15;;;1.40;;
80705;SDS011;70229;48.010;7.852;2024-02-21T03:44:50;4.72;;;1.80;;
80705;SDS011;70229;48.010;7.852;2024-02-21T03:47:16;7.50;;;2.50;;
80705;SDS011;70229;48.010;7.852;2024-02-21T03:49:41;6.10;;;1.73;;
80705;SDS011;70229;48.010;7.852;2024-02-21T03:52:07;3.97;;;1.70;;
80705;SDS011;70229;48.010;7.852;2024-02-21T03:54:34;4.90;;;1.63;;
80705;SDS011;70229;48.010;7.852;2024-02-21T03:56:59;4.40;;;2.03;;
80705;SDS011;70229;48.010;7.852;2024-02-21T03:59:25;11.05;;;2.03;;
80705;SDS011;70229;48.010;7.852;2024-02-21T04:01:53;5.85;;;1.85;;
80705;SDS011;70229;48.010;7.852;2024-02-21T04:04:19;6.30;;;2.30;;
80705;SDS011;70229;48.010;7.852;2024-02-21T04:06:46;6.53;;;2.28;;
80705;SDS011;70229;48.010;7.852;2024-02-21T04:09:15;4.10;;;1.73;;
80705;SDS011;70229;48.010;7.852;2024-02-21T04:11:41;4.47;;;1.25;;
80705;SDS011;70229;48.010;7.852;2024-02-21T04:14:06;5.22;;;1.92;;
80705;SDS011;70229;48.010;7.852;2024-02-21T04:16:32;4.07;;;1.70;;
80705;SDS011;70229;48.010;7.852;2024-02-21T04:18:58;5.68;;;1.85;;
80705;SDS011;70229;48.010;7.852;2024-02-21T04:21:23;3.17;;;1.60;;
80705;SDS011;70229;48.010;7.852;2024-02-21T04:23:49;4.55;;;1.58;;
80705;SDS011;70229;48.010;7.852;2024-02-21T04:26:15;8.70;;;2.45;;
80705;SDS011;70229;48.010;7.852;2024-02-21T04:28:40;8.82;;;3.85;;
80705;SDS011;70229;48.010;7.852;2024-02-21T04:31:06;23.92;;;15.98;;
80705;SDS011;70229;48.010;7.852;2024-02-21T04:33:32;12.57;;;5.95;;
80705;SDS011;70229;48.010;7.852;2024-02-21T04:35:57;9.13;;;4.15;;
80705;SDS011;70229;48.010;7.852;2024-02-21T04:38:24;9.80;;;5.85;;
80705;SDS011;70229;48.010;7.852;2024-02-21T04:40:50;10.57;;;5.63;;
80705;SDS011;70229;48.010;7.852;2024-02-21T04:43:15;10.05;;;4.45;;
80705;SDS011;70229;48.010;7.852;2024-02-21T04:45:41;7.30;;;3.95;;
80705;SDS011;70229;48.010;7.852;2024-02-21T04:48:07;5.22;;;2.45;;
80705;SDS011;70229;48.010;7.852;2024-02-21T04:50:32;4.65;;;1.42;;
80705;SDS011;70229;48.010;7.852;2024-02-21T04:52:58;3.78;;;1.80;;
80705;SDS011;70229;48.010;7.852;2024-02-21T04:55:24;5.47;;;2.28;;
80705;SDS011;70229;48.010;7.852;2024-02-21T04:57:49;4.65;;;1.88;;
80705;SDS011;70229;48.010;7.852;2024-02-21T05:00:15;9.82;;;5.78;;
80705;SDS011;70229;48.010;7.852;2024-02-21T05:02:40;12.60;;;5.43;;
80705;SDS011;70229;48.010;7.852;2024-02-21T05:05:06;5.35;;;2.33;;
80705;SDS011;70229;48.010;7.852;2024-02-21T05:07:32;4.35;;;2.13;;
80705;SDS011;70229;48.010;7.852;2024-02-21T05:10:00;4.43;;;2.08;;
80705;SDS011;70229;48.010;7.852;2024-02-21T05:12:25;4.65;;;1.98;;
80705;SDS011;70229;48.010;7.852;2024-02-21T05:14:51;4.57;;;1.98;;
80705;SDS011;70229;48.010;7.852;2024-02-21T05:17:17;2.10;;;0.82;;
80705;SDS011;70229;48.010;7.852;2024-02-21T05:19:42;5.82;;;1.75;;
80705;SDS011;70229;48.010;7.852;2024-02-21T05:22:08;5.13;;;1.88;;
80705;SDS011;70229;48.010;7.852;2024-02-21T05:24:33;7.20;;;2.13;;
80705;SDS011;70229;48.010;7.852;2024-02-21T05:27:00;9.55;;;1.90;;
80705;SDS011;70229;48.010;7.852;2024-02-21T05:29:26;3.42;;;1.13;;
80705;SDS011;70229;48.010;7.852;2024-02-21T05:34:18;3.72;;;1.92;;
80705;SDS011;70229;48.010;7.852;2024-02-21T05:36:45;6.40;;;1.58;;
80705;SDS011;70229;48.010;7.852;2024-02-21T05:39:31;7.57;;;2.65;;
80705;SDS011;70229;48.010;7.852;2024-02-21T05:42:08;3.30;;;1.25;;
80705;SDS011;70229;48.010;7.852;2024-02-21T05:44:39;7.50;;;2.45;;
80705;SDS011;70229;48.010;7.852;2024-02-21T05:47:13;6.00;;;2.00;;
80705;SDS011;70229;48.010;7.852;2024-02-21T05:53:44;4.55;;;1.98;;
80705;SDS011;70229;48.010;7.852;2024-02-21T05:57:03;9.00;;;2.28;;
80705;SDS011;70229;48.010;7.852;2024-02-21T05:59:33;5.95;;;1.85;;
80705;SDS011;70229;48.010;7.852;2024-02-21T06:02:15;7.18;;;2.08;;
80705;SDS011;70229;48.010;7.852;2024-02-21T06:04:42;5.45;;;1.73;;
80705;SDS011;70229;48.010;7.852;2024-02-21T06:07:09;7.20;;;1.65;;
80705;SDS011;70229;48.010;7.852;2024-02-21T06:09:35;5.00;;;1.80;;
80705;SDS011;70229;48.010;7.852;2024-02-21T06:12:00;3.85;;;1.42;;
80705;SDS011;70229;48.010;7.852;2024-02-21T06:14:26;5.88;;;1.75;;
80705;SDS011;70229;48.010;7.852;2024-02-21T06:16:52;4.13;;;1.77;;
80705;SDS011;70229;48.010;7.852;2024-02-21T06:19:17;6.00;;;2.88;;
80705;SDS011;70229;48.010;7.852;2024-02-21T06:21:43;4.13;;;1.58;;
80705;SDS011;70229;48.010;7.852;2024-02-21T06:24:09;7.13;;;2.67;;
80705;SDS011;70229;48.010;7.852;2024-02-21T06:26:34;5.68;;;2.35;;
80705;SDS011;70229;48.010;7.852;2024-02-21T06:29:00;6.82;;;2.63;;
80705;SDS011;70229;48.010;7.852;2024-02-21T06:31:27;4.80;;;2.20;;
80705;SDS011;70229;48.010;7.852;2024-02-21T06:33:52;4.47;;;2.67;;
80705;SDS011;70229;48.010;7.852;2024-02-21T06:36:18;5.78;;;2.63;;
80705;SDS011;70229;48.010;7.852;2024-02-21T06:38:44;6.53;;;1.73;;
80705;SDS011;70229;48.010;7.852;2024-02-21T06:41:16;6.00;;;1.70;;
80705;SDS011;70229;48.010;7.852;2024-02-21T06:43:44;7.38;;;2.05;;
80705;SDS011;70229;48.010;7.852;2024-02-21T06:46:24;3.50;;;1.63;;
80705;SDS011;70229;48.010;7.852;2024-02-21T06:48:50;3.65;;;1.85;;
80705;SDS011;70229;48.010;7.852;2024-02-21T06:51:16;8.38;;;2.58;;
80705;SDS011;70229;48.010;7.852;2024-02-21T06:53:42;8.55;;;3.42;;
80705;SDS011;70229;48.010;7.852;2024-02-21T06:56:08;7.40;;;3.13;;
80705;SDS011;70229;48.010;7.852;2024-02-21T06:58:35;5.63;;;2.78;;
80705;SDS011;70229;48.010;7.852;2024-02-21T07:01:01;11.07;;;4.05;;
80705;SDS011;70229;48.010;7.852;2024-02-21T07:03:27;7.00;;;2.60;;
80705;SDS011;70229;48.010;7.852;2024-02-21T07:05:52;4.95;;;2.70;;
80705;SDS011;70229;48.010;7.852;2024-02-21T07:08:18;9.02;;;2.25;;
80705;SDS011;70229;48.010;7.852;2024-02-21T07:13:28;7.47;;;3.08;;
80705;SDS011;70229;48.010;7.852;2024-02-21T07:15:54;11.73;;;1.80;;
80705;SDS011;70229;48.010;7.852;2024-02-21T07:18:19;2.97;;;1.17;;
80705;SDS011;70229;48.010;7.852;2024-02-21T07:20:45;3.70;;;1.85;;
80705;SDS011;70229;48.010;7.852;2024-02-21T07:23:11;3.63;;;1.63;;
80705;SDS011;70229;48.010;7.852;2024-02-21T07:25:36;6.43;;;1.50;;
80705;SDS011;70229;48.010;7.852;2024-02-21T07:28:03;5.82;;;1.75;;
80705;SDS011;70229;48.010;7.852;2024-02-21T07:30:29;4.55;;;1.65;;
80705;SDS011;70229;48.010;7.852;2024-02-21T07:32:54;7.57;;;1.75;;
80705;SDS011;70229;48.010;7.852;2024-02-21T07:35:20;3.75;;;1.45;;
80705;SDS011;70229;48.010;7.852;2024-02-21T07:37:45;1.55;;;0.82;;
80705;SDS011;70229;48.010;7.852;2024-02-21T07:40:15;5.15;;;2.38;;
80705;SDS011;70229;48.010;7.852;2024-02-21T07:42:41;6.38;;;2.08;;
80705;SDS011;70229;48.010;7.852;2024-02-21T07:45:07;5.72;;;2.20;;
80705;SDS011;70229;48.010;7.852;2024-02-21T07:47:35;5.18;;;1.63;;
80705;SDS011;70229;48.010;7.852;2024-02-21T07:50:01;2.78;;;1.48;;
80705;SDS011;70229;48.010;7.852;2024-02-21T07:52:27;7.70;;;3.45;;
80705;SDS011;70229;48.010;7.852;2024-02-21T07:54:53;5.55;;;3.60;;
80705;SDS011;70229;48.010;7.852;2024-02-21T07:57:19;8.20;;;3.72;;
80705;SDS011;70229;48.010;7.852;2024-02-21T07:59:44;9.35;;;4.22;;
80705;SDS011;70229;48.010;7.852;2024-02-21T08:02:12;9.43;;;3.85;;
80705;SDS011;70229;48.010;7.852;2024-02-21T08:04:40;7.90;;;4.10;;
80705;SDS011;70229;48.010;7.852;2024-02-21T08:07:06;8.45;;;3.60;;
80705;SDS011;70229;48.010;7.852;2024-02-21T08:09:32;6.03;;;3.97;;
80705;SDS011;70229;48.010;7.852;2024-02-21T08:11:57;11.20;;;3.08;;
80705;SDS011;70229;48.010;7.852;2024-02-21T08:14:23;8.20;;;3.42;;
80705;SDS011;70229;48.010;7.852;2024-02-21T08:16:50;8.88;;;3.17;;
80705;SDS011;70229;48.010;7.852;2024-02-21T08:19:18;7.60;;;2.92;;
80705;SDS011;70229;48.010;7.852;2024-02-21T08:21:43;8.27;;;3.20;;
80705;SDS011;70229;48.010;7.852;2024-02-21T08:24:11;6.95;;;2.90;;
80705;SDS011;70229;48.010;7.852;2024-02-21T08:26:40;10.18;;;3.58;;
80705;SDS011;70229;48.010;7.852;2024-02-21T08:29:05;7.47;;;2.95;;
80705;SDS011;70229;48.010;7.852;2024-02-21T08:31:31;5.78;;;2.20;;
80705;SDS011;70229;48.010;7.852;2024-02-21T08:34:00;5.95;;;2.47;;
80705;SDS011;70229;48.010;7.852;2024-02-21T08:36:29;8.70;;;2.50;;
80705;SDS011;70229;48.010;7.852;2024-02-21T08:38:56;8.65;;;2.35;;
80705;SDS011;70229;48.010;7.852;2024-02-21T08:41:22;5.63;;;2.45;;
80705;SDS011;70229;48.010;7.852;2024-02-21T08:43:51;5.55;;;2.85;;
80705;SDS011;70229;48.010;7.852;2024-02-21T08:46:17;5.10;;;2.40;;
80705;SDS011;70229;48.010;7.852;2024-02-21T08:48:43;6.30;;;1.90;;
80705;SDS011;70229;48.010;7.852;2024-02-21T08:51:11;11.23;;;2.85;;
80705;SDS011;70229;48.010;7.852;2024-02-21T08:53:37;8.05;;;2.92;;
80705;SDS011;70229;48.010;7.852;2024-02-21T08:56:03;11.43;;;4.60;;
80705;SDS011;70229;48.010;7.852;2024-02-21T08:58:29;10.60;;;5.43;;
80705;SDS011;70229;48.010;7.852;2024-02-21T09:00:54;8.80;;;3.72;;
80705;SDS011;70229;48.010;7.852;2024-02-21T09:03:20;11.38;;;3.35;;
80705;SDS011;70229;48.010;7.852;2024-02-21T09:05:46;11.07;;;4.63;;
80705;SDS011;70229;48.010;7.852;2024-02-21T09:08:11;8.98;;;3.60;;
80705;SDS011;70229;48.010;7.852;2024-02-21T09:10:37;12.85;;;3.78;;
80705;SDS011;70229;48.010;7.852;2024-02-21T09:13:04;13.55;;;4.13;;
80705;SDS011;70229;48.010;7.852;2024-02-21T09:15:30;15.15;;;4.72;;
80705;SDS011;70229;48.010;7.852;2024-02-21T09:17:57;11.85;;;3.10;;
80705;SDS011;70229;48.010;7.852;2024-02-21T09:20:22;13.48;;;5.05;;
80705;SDS011;70229;48.010;7.852;2024-02-21T09:22:48;7.00;;;3.05;;
80705;SDS011;70229;48.010;7.852;2024-02-21T09:25:13;8.05;;;2.47;;
80705;SDS011;70229;48.010;7.852;2024-02-21T09:27:39;11.13;;;2.92;;
80705;SDS011;70229;48.010;7.852;2024-02-21T09:30:05;5.72;;;2.92;;
80705;SDS011;70229;48.010;7.852;2024-02-21T09:32:31;6.65;;;2.63;;
80705;SDS011;70229;48.010;7.852;2024-02-21T09:35:00;7.40;;;3.80;;
80705;SDS011;70229;48.010;7.852;2024-02-21T09:37:25;9.77;;;4.32;;
80705;SDS011;70229;48.010;7.852;2024-02-21T09:39:51;8.65;;;3.15;;
80705;SDS011;70229;48.010;7.852;2024-02-21T09:42:19;8.40;;;3.63;;
80705;SDS011;70229;48.010;7.852;2024-02-21T09:44:46;6.22;;;2.63;;
80705;SDS011;70229;48.010;7.852;2024-02-21T09:47:16;9.98;;;2.88;;
80705;SDS011;70229;48.010;7.852;2024-02-21T09:49:43;8.65;;;3.67;;
80705;SDS011;70229;48.010;7.852;2024-02-21T09:52:09;8.82;;;3.17;;
80705;SDS011;70229;48.010;7.852;2024-02-21T09:54:38;8.93;;;3.70;;
80705;SDS011;70229;48.010;7.852;2024-02-21T09:57:06;10.80;;;3.53;;
80705;SDS011;70229;48.010;7.852;2024-02-21T09:59:33;6.63;;;3.15;;
80705;SDS011;70229;48.010;7.852;2024-02-21T10:01:59;7.28;;;3.25;;
80705;SDS011;70229;48.010;7.852;2024-02-21T10:04:25;7.32;;;3.88;;
80705;SDS011;70229;48.010;7.852;2024-02-21T10:06:51;7.80;;;2.75;;
80705;SDS011;70229;48.010;7.852;2024-02-21T10:11:52;7.75;;;2.90;;
80705;SDS011;70229;48.010;7.852;2024-02-21T10:14:18;7.93;;;2.83;;
80705;SDS011;70229;48.010;7.852;2024-02-21T10:16:48;6.82;;;2.47;;
80705;SDS011;70229;48.010;7.852;2024-02-21T10:19:18;6.80;;;3.05;;
80705;SDS011;70229;48.010;7.852;2024-02-21T10:21:44;6.20;;;2.65;;
80705;SDS011;70229;48.010;7.852;2024-02-21T10:24:28;7.57;;;2.95;;
80705;SDS011;70229;48.010;7.852;2024-02-21T10:27:04;5.88;;;2.97;;
80705;SDS011;70229;48.010;7.852;2024-02-21T10:29:34;5.03;;;1.85;;
80705;SDS011;70229;48.010;7.852;2024-02-21T10:32:04;4.93;;;1.90;;
80705;SDS011;70229;48.010;7.852;2024-02-21T10:34:33;5.65;;;2.40;;
80705;SDS011;70229;48.010;7.852;2024-02-21T10:37:00;17.73;;;2.47;;
80705;SDS011;70229;48.010;7.852;2024-02-21T10:39:33;7.25;;;2.03;;
80705;SDS011;70229;48.010;7.852;2024-02-21T10:42:01;12.15;;;2.50;;
80705;SDS011;70229;48.010;7.852;2024-02-21T10:44:29;8.77;;;3.25;;
80705;SDS011;70229;48.010;7.852;2024-02-21T10:46:56;5.18;;;2.00;;
80705;SDS011;70229;48.010;7.852;2024-02-21T10:49:23;3.53;;;1.23;;
80705;SDS011;70229;48.010;7.852;2024-02-21T10:57:10;2.33;;;0.93;;
80705;SDS011;70229;48.010;7.852;2024-02-21T10:59:37;4.07;;;0.75;;
80705;SDS011;70229;48.010;7.852;2024-02-21T11:02:05;2.78;;;0.93;;
80705;SDS011;70229;48.010;7.852;2024-02-21T11:04:31;4.22;;;1.20;;
80705;SDS011;70229;48.010;7.852;2024-02-21T11:07:01;4.63;;;1.50;;
80705;SDS011;70229;48.010;7.852;2024-02-21T11:09:31;3.83;;;0.95;;
80705;SDS011;70229;48.010;7.852;2024-02-21T11:11:58;4.57;;;1.10;;
80705;SDS011;70229;48.010;7.852;2024-02-21T11:14:28;3.05;;;1.25;;
80705;SDS011;70229;48.010;7.852;2024-02-21T11:16:57;2.35;;;0.90;;
80705;SDS011;70229;48.010;7.852;2024-02-21T11:21:50;3.65;;;1.75;;
80705;SDS011;70229;48.010;7.852;2024-02-21T11:26:53;3.70;;;1.40;;
80705;SDS011;70229;48.010;7.852;2024-02-21T11:29:25;7.85;;;1.80;;
80705;SDS011;70229;48.010;7.852;2024-02-21T11:31:51;7.70;;;2.25;;
80705;SDS011;70229;48.010;7.852;2024-02-21T11:34:18;4.93;;;2.03;;
80705;SDS011;70229;48.010;7.852;2024-02-21T11:36:48;5.28;;;1.98;;
80705;SDS011;70229;48.010;7.852;2024-02-21T11:39:21;6.15;;;2.00;;
80705;SDS011;70229;48.010;7.852;2024-02-21T11:41:59;5.20;;;2.40;;
80705;SDS011;70229;48.010;7.852;2024-02-21T11:44:35;4.85;;;2.35;;
80705;SDS011;70229;48.010;7.852;2024-02-21T11:47:07;5.22;;;1.63;;
80705;SDS011;70229;48.010;7.852;2024-02-21T11:49:37;5.97;;;2.00;;
80705;SDS011;70229;48.010;7.852;2024-02-21T11:52:06;4.97;;;1.88;;
80705;SDS011;70229;48.010;7.852;2024-02-21T11:54:32;5.03;;;1.88;;
80705;SDS011;70229;48.010;7.852;2024-02-21T11:57:01;5.28;;;1.98;;
80705;SDS011;70229;48.010;7.852;2024-02-21T11:59:32;4.88;;;2.22;;
80705;SDS011;70229;48.010;7.852;2024-02-21T12:01:58;3.67;;;1.40;;
80705;SDS011;70229;48.010;7.852;2024-02-21T12:04:28;7.10;;;2.13;;
80705;SDS011;70229;48.010;7.852;2024-02-21T12:06:56;4.97;;;1.73;;
80705;SDS011;70229;48.010;7.852;2024-02-21T12:09:22;6.93;;;1.60;;
80705;SDS011;70229;48.010;7.852;2024-02-21T12:11:56;1.73;;;1.00;;
80705;SDS011;70229;48.010;7.852;2024-02-21T12:14:24;3.08;;;1.10;;
80705;SDS011;70229;48.010;7.852;2024-02-21T12:16:50;4.60;;;1.55;;
80705;SDS011;70229;48.010;7.852;2024-02-21T12:19:15;2.83;;;1.27;;
80705;SDS011;70229;48.010;7.852;2024-02-21T12:21:42;2.17;;;1.00;;
80705;SDS011;70229;48.010;7.852;2024-02-21T12:24:15;1.85;;;0.77;;
80705;SDS011;70229;48.010;7.852;2024-02-21T12:26:42;1.38;;;0.40;;
80705;SDS011;70229;48.010;7.852;2024-02-21T12:29:08;1.30;;;0.50;;
80705;SDS011;70229;48.010;7.852;2024-02-21T12:31:35;3.22;;;1.30;;
80705;SDS011;70229;48.010;7.852;2024-02-21T12:34:01;1.67;;;0.60;;
80705;SDS011;70229;48.010;7.852;2024-02-21T12:36:27;2.63;;;1.05;;
80705;SDS011;70229;48.010;7.852;2024-02-21T12:38:52;0.77;;;0.50;;
80705;SDS011;70229;48.010;7.852;2024-02-21T12:41:18;1.58;;;0.50;;
80705;SDS011;70229;48.010;7.852;2024-02-21T12:43:44;2.58;;;0.75;;
80705;SDS011;70229;48.010;7.852;2024-02-21T12:46:09;3.33;;;0.90;;
80705;SDS011;70229;48.010;7.852;2024-02-21T12:48:35;3.08;;;1.27;;
80705;SDS011;70229;48.010;7.852;2024-02-21T12:51:00;1.60;;;0.70;;
80705;SDS011;70229;48.010;7.852;2024-02-21T12:53:26;2.88;;;0.88;;
80705;SDS011;70229;48.010;7.852;2024-02-21T12:55:51;1.05;;;0.70;;
80705;SDS011;70229;48.010;7.852;2024-02-21T12:58:17;1.05;;;0.45;;
80705;SDS011;70229;48.010;7.852;2024-02-21T13:00:42;3.63;;;0.85;;
80705;SDS011;70229;48.010;7.852;2024-02-21T13:03:08;1.65;;;0.55;;
80705;SDS011;70229;48.010;7.852;2024-02-21T13:05:37;1.27;;;0.50;;
80705;SDS011;70229;48.010;7.852;2024-02-21T13:08:04;2.00;;;0.88;;
80705;SDS011;70229;48.010;7.852;2024-02-21T13:10:33;1.75;;;0.68;;
80705;SDS011;70229;48.010;7.852;2024-02-21T13:13:00;5.43;;;1.33;;
80705;SDS011;70229;48.010;7.852;2024-02-21T13:15:26;1.88;;;0.85;;
80705;SDS011;70229;48.010;7.852;2024-02-21T13:17:53;2.97;;;0.93;;
80705;SDS011;70229;48.010;7.852;2024-02-21T13:20:19;3.13;;;0.70;;
80705;SDS011;70229;48.010;7.852;2024-02-21T13:22:44;2.97;;;0.88;;
80705;SDS011;70229;48.010;7.852;2024-02-21T13:25:10;2.42;;;0.90;;
80705;SDS011;70229;48.010;7.852;2024-02-21T13:27:39;3.03;;;1.05;;
80705;SDS011;70229;48.010;7.852;2024-02-21T13:30:05;2.15;;;0.70;;
80705;SDS011;70229;48.010;7.852;2024-02-21T13:32:33;2.33;;;1.02;;
80705;SDS011;70229;48.010;7.852;2024-02-21T13:34:59;2.65;;;1.05;;
80705;SDS011;70229;48.010;7.852;2024-02-21T13:37:26;2.67;;;0.82;;
80705;SDS011;70229;48.010;7.852;2024-02-21T13:39:52;1.88;;;1.10;;
80705;SDS011;70229;48.010;7.852;2024-02-21T13:42:18;3.85;;;0.82;;
80705;SDS011;70229;48.010;7.852;2024-02-21T13:44:44;1.35;;;0.63;;
80705;SDS011;70229;48.010;7.852;2024-02-21T13:47:10;2.63;;;0.98;;
80705;SDS011;70229;48.010;7.852;2024-02-21T13:49:39;1.15;;;0.60;;
80705;SDS011;70229;48.010;7.852;2024-02-21T13:52:04;1.75;;;0.73;;
80705;SDS011;70229;48.010;7.852;2024-02-21T13:54:30;2.03;;;1.00;;
80705;SDS011;70229;48.010;7.852;2024-02-21T13:56:55;2.58;;;0.80;;
80705;SDS011;70229;48.010;7.852;2024-02-21T13:59:21;2.40;;;1.00;;
80705;SDS011;70229;48.010;7.852;2024-02-21T14:01:46;3.47;;;1.50;;
80705;SDS011;70229;48.010;7.852;2024-02-21T14:04:12;3.15;;;1.13;;
80705;SDS011;70229;48.010;7.852;2024-02-21T14:06:38;3.38;;;1.50;;
80705;SDS011;70229;48.010;7.852;2024-02-21T14:09:08;5.03;;;2.20;;
80705;SDS011;70229;48.010;7.852;2024-02-21T14:11:34;2.92;;;1.10;;
80705;SDS011;70229;48.010;7.852;2024-02-21T14:14:00;2.65;;;1.02;;
80705;SDS011;70229;48.010;7.852;2024-02-21T14:16:26;4.78;;;1.10;;
80705;SDS011;70229;48.010;7.852;2024-02-21T14:18:51;2.72;;;1.30;;
80705;SDS011;70229;48.010;7.852;2024-02-21T14:21:19;3.30;;;1.13;;
80705;SDS011;70229;48.010;7.852;2024-02-21T14:23:44;2.33;;;0.98;;
80705;SDS011;70229;48.010;7.852;2024-02-21T14:26:10;3.03;;;1.20;;
80705;SDS011;70229;48.010;7.852;2024-02-21T14:28:37;2.05;;;0.75;;
80705;SDS011;70229;48.010;7.852;2024-02-21T14:31:02;2.05;;;0.90;;
80705;SDS011;70229;48.010;7.852;2024-02-21T14:33:30;2.72;;;1.40;;
80705;SDS011;70229;48.010;7.852;2024-02-21T14:35:56;2.03;;;0.77;;
80705;SDS011;70229;48.010;7.852;2024-02-21T14:38:22;2.97;;;0.98;;
80705;SDS011;70229;48.010;7.852;2024-02-21T14:40:48;2.35;;;1.08;;
80705;SDS011;70229;48.010;7.852;2024-02-21T14:43:13;1.92;;;0.77;;
80705;SDS011;70229;48.010;7.852;2024-02-21T14:45:39;2.45;;;1.00;;
80705;SDS011;70229;48.010;7.852;2024-02-21T14:48:05;2.97;;;1.13;;
80705;SDS011;70229;48.010;7.852;2024-02-21T14:50:31;1.25;;;0.82;;
80705;SDS011;70229;48.010;7.852;2024-02-21T14:52:56;1.65;;;0.70;;
80705;SDS011;70229;48.010;7.852;2024-02-21T14:55:22;5.05;;;0.80;;
80705;SDS011;70229;48.010;7.852;2024-02-21T14:57:48;3.38;;;1.30;;
80705;SDS011;70229;48.010;7.852;2024-02-21T15:00:14;3.22;;;1.48;;
80705;SDS011;70229;48.010;7.852;2024-02-21T15:02:40;8.60;;;1.13;;
80705;SDS011;70229;48.010;7.852;2024-02-21T15:05:06;2.13;;;1.00;;